Time,TemperatureF,DewpointF,PressureIn,WindDirection,WindDirectionDegrees,WindSpeedMPH,WindSpeedGustMPH,Humidity,HourlyPrecipIn,Conditions,Clouds,dailyrainin,SoftwareType,DateUTC
2013-02-28 00:00:00,26.1,18.9,28.64,NNW,339,6.0,7.6,74,0.00,,,-99.99,FreeWX-Wi 1.01,2013-02-28 06:00:00,
2013-02-28 00:05:00,25.5,18.3,28.64,NNW,337,7.0,8.3,74,0.00,,,-99.99,FreeWX-Wi 1.01,2013-02-28 06:05:00,
2013-02-28 00:10:00,24.4,17.6,28.64,NNW,333,6.0,8.1,75,0.00,,,-99.99,FreeWX-Wi 1.01,2013-02-28 06:10:00,
2013-02-28 00:15:00,23.5,17.4,28.64,NNW,328,6.0,6.0,77,0.00,,,-99.99,FreeWX-Wi 1.01,2013-02-28 06:15:00,
2013-02-28 00:20:00,23.2,17.4,28.64,NW,325,5.0,5.8,78,0.00,,,-99.99,FreeWX-Wi 1.01,2013-02-28 06:20:00,
2013-02-28 00:25:00,23.0,17.2,28.64,NW,323,5.0,7.6,78,0.00,,,-99.99,FreeWX-Wi 1.01,2013-02-28 06:25:00,
2013-02-28 00:30:00,22.8,17.2,28.64,NW,322,5.0,6.3,79,0.00,,,-99.99,FreeWX-Wi 1.01,2013-02-28 06:30:00,
2013-02-28 00:35:00,23.2,17.6,28.64,NW,323,5.0,8.7,79,0.00,,,-99.99,FreeWX-Wi 1.01,2013-02-28 06:35:00,
2013-02-28 00:40:00,23.4,17.6,28.64,NW,324,5.0,10.1,78,0.00,,,-99.99,FreeWX-Wi 1.01,2013-02-28 06:40:00,
2013-02-28 00:45:00,23.5,17.4,28.64,NW,325,6.0,8.7,77,0.00,,,-99.99,FreeWX-Wi 1.01,2013-02-28 06:45:00,
2013-02-28 00:50:00,23.5,17.1,28.64,NW,326,6.0,8.7,76,0.00,,,-99.99,FreeWX-Wi 1.01,2013-02-28 06:50:00,
2013-02-28 00:56:00,23.5,17.1,28.64,NW,326,7.0,10.1,76,0.00,,,-99.99,FreeWX-Wi 1.01,2013-02-28 06:56:00,
2013-02-28 01:01:00,23.4,16.9,28.64,NW,326,7.0,8.7,76,0.00,,,-99.99,FreeWX-Wi 1.01,2013-02-28 07:01:00,
2013-02-28 01:06:00,23.4,16.9,28.64,NW,326,7.0,8.7,76,0.00,,,-99.99,FreeWX-Wi 1.01,2013-02-28 07:06:00,
2013-02-28 01:11:00,23.4,16.9,28.64,NW,326,7.0,8.7,76,0.00,,,-99.99,FreeWX-Wi 1.01,2013-02-28 07:11:00,
2013-02-28 01:16:00,23.4,16.7,28.67,NW,326,7.0,11.0,75,0.00,,,-99.99,FreeWX-Wi 1.01,2013-02-28 07:16:00,
2013-02-28 01:21:00,23.5,17.1,28.67,NW,326,7.0,8.7,76,0.00,,,-99.99,FreeWX-Wi 1.01,2013-02-28 07:21:00,
2013-02-28 01:26:00,23.4,16.7,28.67,NW,325,7.0,8.7,75,0.00,,,-99.99,FreeWX-Wi 1.01,2013-02-28 07:26:00,
2013-02-28 01:31:00,23.5,16.9,28.67,NW,326,8.0,10.1,75,0.00,,,-99.99,FreeWX-Wi 1.01,2013-02-28 07:31:00,
2013-02-28 01:36:00,22.6,15.6,28.67,NW,326,7.0,8.3,74,0.00,,,-99.99,FreeWX-Wi 1.01,2013-02-28 07:36:00,
2013-02-28 01:41:00,22.3,15.6,28.67,NW,325,7.0,7.6,75,0.00,,,-99.99,FreeWX-Wi 1.01,2013-02-28 07:41:00,
2013-02-28 01:46:00,21.7,14.7,28.67,NW,325,6.0,8.1,74,0.00,,,-99.99,FreeWX-Wi 1.01,2013-02-28 07:46:00,
2013-02-28 01:52:00,20.8,14.5,28.67,NW,323,6.0,6.0,76,0.00,,,-99.99,FreeWX-Wi 1.01,2013-02-28 07:52:00,
2013-02-28 01:57:00,20.3,14.2,28.67,NW,323,5.0,6.3,77,0.00,,,-99.99,FreeWX-Wi 1.01,2013-02-28 07:57:00,
2013-02-28 02:02:00,20.3,14.5,28.67,NW,322,5.0,7.2,78,0.00,,,-99.99,FreeWX-Wi 1.01,2013-02-28 08:02:00,
2013-02-28 02:07:00,20.3,14.5,28.67,NW,322,5.0,8.1,78,0.00,,,-99.99,FreeWX-Wi 1.01,2013-02-28 08:07:00,
2013-02-28 02:12:00,20.3,14.9,28.67,NW,323,5.0,8.7,79,0.00,,,-99.99,FreeWX-Wi 1.01,2013-02-28 08:12:00,
2013-02-28 02:17:00,20.5,15.1,28.67,NW,324,6.0,8.7,79,0.00,,,-99.99,FreeWX-Wi 1.01,2013-02-28 08:17:00,
2013-02-28 02:22:00,20.5,14.7,28.67,NW,325,6.0,8.7,78,0.00,,,-99.99,FreeWX-Wi 1.01,2013-02-28 08:22:00,
2013-02-28 02:27:00,20.5,14.7,28.67,NW,325,6.0,7.6,78,0.00,,,-99.99,FreeWX-Wi 1.01,2013-02-28 08:27:00,
2013-02-28 02:32:00,20.8,15.4,28.67,NW,325,6.0,7.6,79,0.00,,,-99.99,FreeWX-Wi 1.01,2013-02-28 08:32:00,
2013-02-28 02:37:00,20.8,15.1,28.67,NW,324,6.0,8.3,78,0.00,,,-99.99,FreeWX-Wi 1.01,2013-02-28 08:37:00,
2013-02-28 02:42:00,20.8,15.1,28.67,NW,325,6.0,8.1,78,0.00,,,-99.99,FreeWX-Wi 1.01,2013-02-28 08:42:00,
2013-02-28 02:47:00,21.0,15.6,28.67,NW,325,6.0,8.3,79,0.00,,,-99.99,FreeWX-Wi 1.01,2013-02-28 08:47:00,
2013-02-28 02:53:00,21.4,16.2,28.67,NW,325,6.0,8.1,80,0.00,,,-99.99,FreeWX-Wi 1.01,2013-02-28 08:53:00,
2013-02-28 02:58:00,21.9,16.7,28.67,NW,326,6.0,8.3,80,0.00,,,-99.99,FreeWX-Wi 1.01,2013-02-28 08:58:00,
2013-02-28 03:03:00,22.5,16.9,28.67,NNW,327,7.0,8.7,79,0.00,,,-99.99,FreeWX-Wi 1.01,2013-02-28 09:03:00,
2013-02-28 03:08:00,22.6,16.9,28.67,NNW,327,7.0,8.7,78,0.00,,,-99.99,FreeWX-Wi 1.01,2013-02-28 09:08:00,
2013-02-28 03:13:00,22.6,16.9,28.67,NNW,327,7.0,8.1,78,0.00,,,-99.99,FreeWX-Wi 1.01,2013-02-28 09:13:00,
2013-02-28 03:18:00,22.5,16.7,28.67,NNW,327,7.0,8.3,78,0.00,,,-99.99,FreeWX-Wi 1.01,2013-02-28 09:18:00,
2013-02-28 03:23:00,22.8,17.1,28.67,NNW,327,7.0,8.7,78,0.00,,,-99.99,FreeWX-Wi 1.01,2013-02-28 09:23:00,
2013-02-28 03:28:00,22.8,16.7,28.67,NNW,327,7.0,8.3,77,0.00,,,-99.99,FreeWX-Wi 1.01,2013-02-28 09:28:00,
2013-02-28 03:33:00,22.8,16.3,28.67,NNW,327,7.0,8.3,76,0.00,,,-99.99,FreeWX-Wi 1.01,2013-02-28 09:33:00,
2013-02-28 03:38:00,22.8,16.7,28.67,NW,326,6.0,8.7,77,0.00,,,-99.99,FreeWX-Wi 1.01,2013-02-28 09:38:00,
2013-02-28 03:43:00,23.0,16.9,28.67,NNW,327,6.0,6.7,77,0.00,,,-99.99,FreeWX-Wi 1.01,2013-02-28 09:43:00,
2013-02-28 03:48:00,23.2,17.1,28.67,NW,326,6.0,8.1,77,0.00,,,-99.99,FreeWX-Wi 1.01,2013-02-28 09:48:00,
2013-02-28 03:54:00,23.5,17.4,28.67,NW,326,6.0,8.3,77,0.00,,,-99.99,FreeWX-Wi 1.01,2013-02-28 09:54:00,
2013-02-28 03:59:00,24.1,17.6,28.67,NW,325,6.0,8.7,76,0.00,,,-99.99,FreeWX-Wi 1.01,2013-02-28 09:59:00,
2013-02-28 04:04:00,24.3,17.8,28.67,NNW,327,6.0,8.3,76,0.00,,,-99.99,FreeWX-Wi 1.01,2013-02-28 10:04:00,
2013-02-28 04:09:00,24.4,18.0,28.67,NNW,329,6.0,8.3,76,0.00,,,-99.99,FreeWX-Wi 1.01,2013-02-28 10:09:00,
2013-02-28 04:14:00,24.8,18.0,28.67,NNW,330,7.0,8.1,75,0.00,,,-99.99,FreeWX-Wi 1.01,2013-02-28 10:14:00,
2013-02-28 04:19:00,24.8,18.0,28.67,NNW,331,7.0,8.1,75,0.00,,,-99.99,FreeWX-Wi 1.01,2013-02-28 10:19:00,
2013-02-28 04:24:00,25.0,18.1,28.67,NNW,331,6.0,8.7,75,0.00,,,-99.99,FreeWX-Wi 1.01,2013-02-28 10:24:00,
2013-02-28 04:29:00,25.2,18.3,28.67,NNW,332,6.0,8.1,75,0.00,,,-99.99,FreeWX-Wi 1.01,2013-02-28 10:29:00,
2013-02-28 04:34:00,25.2,18.1,28.67,NNW,330,6.0,8.1,74,0.00,,,-99.99,FreeWX-Wi 1.01,2013-02-28 10:34:00,
2013-02-28 04:39:00,25.2,18.1,28.67,NNW,329,6.0,8.3,74,0.00,,,-99.99,FreeWX-Wi 1.01,2013-02-28 10:39:00,
2013-02-28 04:44:00,25.3,18.3,28.67,NNW,329,6.0,8.1,74,0.00,,,-99.99,FreeWX-Wi 1.01,2013-02-28 10:44:00,
2013-02-28 04:50:00,25.5,18.3,28.70,NNW,327,6.0,8.7,74,0.00,,,-99.99,FreeWX-Wi 1.01,2013-02-28 10:50:00,
2013-02-28 04:55:00,25.5,18.3,28.70,NNW,327,6.0,8.1,74,0.00,,,-99.99,FreeWX-Wi 1.01,2013-02-28 10:55:00,
2013-02-28 05:00:00,25.7,18.5,28.70,NNW,327,6.0,7.6,74,0.00,,,-99.99,FreeWX-Wi 1.01,2013-02-28 11:00:00,
2013-02-28 05:05:00,25.7,18.3,28.70,NNW,328,6.0,6.3,73,0.00,,,-99.99,FreeWX-Wi 1.01,2013-02-28 11:05:00,
2013-02-28 05:10:00,25.7,18.5,28.70,NNW,331,6.0,8.7,74,0.00,,,-99.99,FreeWX-Wi 1.01,2013-02-28 11:10:00,
2013-02-28 05:15:00,25.9,18.5,28.70,NNW,333,6.0,8.7,73,0.00,,,-99.99,FreeWX-Wi 1.01,2013-02-28 11:15:00,
2013-02-28 05:20:00,25.9,18.5,28.70,NNW,335,6.0,7.6,73,0.00,,,-99.99,FreeWX-Wi 1.01,2013-02-28 11:20:00,
2013-02-28 05:25:00,26.1,18.7,28.70,NNW,335,6.0,7.6,73,0.00,,,-99.99,FreeWX-Wi 1.01,2013-02-28 11:25:00,
2013-02-28 05:30:00,26.1,18.7,28.70,NNW,337,6.0,8.1,73,0.00,,,-99.99,FreeWX-Wi 1.01,2013-02-28 11:30:00,
2013-02-28 05:35:00,26.1,18.7,28.70,NNW,337,6.0,7.6,73,0.00,,,-99.99,FreeWX-Wi 1.01,2013-02-28 11:35:00,
2013-02-28 05:40:00,26.1,18.7,28.70,NNW,336,6.0,8.1,73,0.00,,,-99.99,FreeWX-Wi 1.01,2013-02-28 11:40:00,
2013-02-28 05:46:00,26.1,18.3,28.70,NNW,335,6.0,8.3,72,0.00,,,-99.99,FreeWX-Wi 1.01,2013-02-28 11:46:00,
2013-02-28 05:51:00,26.1,18.3,28.70,NNW,335,6.0,8.7,72,0.00,,,-99.99,FreeWX-Wi 1.01,2013-02-28 11:51:00,
2013-02-28 05:56:00,26.1,18.3,28.70,NNW,335,6.0,8.3,72,0.00,,,-99.99,FreeWX-Wi 1.01,2013-02-28 11:56:00,
2013-02-28 06:01:00,26.2,18.1,28.70,NNW,334,6.0,8.1,71,0.00,,,-99.99,FreeWX-Wi 1.01,2013-02-28 12:01:00,
2013-02-28 06:06:00,26.1,18.3,28.70,NNW,332,6.0,7.6,72,0.00,,,-99.99,FreeWX-Wi 1.01,2013-02-28 12:06:00,
2013-02-28 06:11:00,26.1,18.3,28.70,NNW,332,6.0,8.7,72,0.00,,,-99.99,FreeWX-Wi 1.01,2013-02-28 12:11:00,
2013-02-28 06:16:00,26.1,18.0,28.70,NNW,331,6.0,8.3,71,0.00,,,-99.99,FreeWX-Wi 1.01,2013-02-28 12:16:00,
2013-02-28 06:21:00,26.1,18.0,28.70,NNW,331,6.0,8.3,71,0.00,,,-99.99,FreeWX-Wi 1.01,2013-02-28 12:21:00,
2013-02-28 06:26:00,25.9,17.8,28.70,NNW,332,6.0,7.6,71,0.00,,,-99.99,FreeWX-Wi 1.01,2013-02-28 12:26:00,
2013-02-28 06:31:00,25.9,17.8,28.73,NNW,333,6.0,8.7,71,0.00,,,-99.99,FreeWX-Wi 1.01,2013-02-28 12:31:00,
2013-02-28 06:36:00,25.9,17.8,28.73,NNW,333,6.0,8.1,71,0.00,,,-99.99,FreeWX-Wi 1.01,2013-02-28 12:36:00,
2013-02-28 06:41:00,25.9,17.8,28.73,NNW,334,6.0,11.0,71,0.00,,,-99.99,FreeWX-Wi 1.01,2013-02-28 12:41:00,
2013-02-28 06:46:00,25.9,17.8,28.73,NNW,334,6.0,6.3,71,0.00,,,-99.99,FreeWX-Wi 1.01,2013-02-28 12:46:00,
2013-02-28 06:52:00,26.1,18.0,28.73,NNW,335,6.0,8.1,71,0.00,,,-99.99,FreeWX-Wi 1.01,2013-02-28 12:52:00,
2013-02-28 06:57:00,26.1,18.3,28.73,NNW,335,6.0,8.7,72,0.00,,,-99.99,FreeWX-Wi 1.01,2013-02-28 12:57:00,
2013-02-28 07:02:00,25.9,18.1,28.73,NNW,336,6.0,8.7,72,0.00,,,-99.99,FreeWX-Wi 1.01,2013-02-28 13:02:00,
2013-02-28 07:07:00,25.9,18.5,28.73,NNW,337,6.0,8.7,73,0.00,,,-99.99,FreeWX-Wi 1.01,2013-02-28 13:07:00,
2013-02-28 07:12:00,26.1,18.3,28.73,NNW,338,6.0,8.7,72,0.00,,,-99.99,FreeWX-Wi 1.01,2013-02-28 13:12:00,
2013-02-28 07:17:00,26.1,18.3,28.73,NNW,339,7.0,9.6,72,0.00,,,-99.99,FreeWX-Wi 1.01,2013-02-28 13:17:00,
2013-02-28 07:22:00,26.1,18.3,28.73,NNW,341,7.0,8.7,72,0.00,,,-99.99,FreeWX-Wi 1.01,2013-02-28 13:22:00,
2013-02-28 07:27:00,26.1,18.0,28.73,NNW,342,6.0,8.7,71,0.00,,,-99.99,FreeWX-Wi 1.01,2013-02-28 13:27:00,
2013-02-28 07:32:00,26.1,18.3,28.76,NNW,341,6.0,8.3,72,0.00,,,-99.99,FreeWX-Wi 1.01,2013-02-28 13:32:00,
2013-02-28 07:37:00,26.2,18.5,28.76,NNW,341,6.0,8.7,72,0.00,,,-99.99,FreeWX-Wi 1.01,2013-02-28 13:37:00,
2013-02-28 07:43:00,26.2,18.1,28.76,NNW,341,6.0,8.7,71,0.00,,,-99.99,FreeWX-Wi 1.01,2013-02-28 13:43:00,
2013-02-28 07:48:00,26.4,18.3,28.76,NNW,341,6.0,8.7,71,0.00,,,-99.99,FreeWX-Wi 1.01,2013-02-28 13:48:00,
2013-02-28 07:53:00,26.4,18.3,28.76,NNW,340,6.0,8.7,71,0.00,,,-99.99,FreeWX-Wi 1.01,2013-02-28 13:53:00,
2013-02-28 07:58:00,26.6,18.1,28.76,NNW,341,6.0,8.7,70,0.00,,,-99.99,FreeWX-Wi 1.01,2013-02-28 13:58:00,
2013-02-28 08:03:00,26.8,17.6,28.76,NNW,341,7.0,10.1,68,0.00,,,-99.99,FreeWX-Wi 1.01,2013-02-28 14:03:00,
2013-02-28 08:08:00,27.0,17.1,28.76,NNW,341,7.0,8.7,66,0.00,,,-99.99,FreeWX-Wi 1.01,2013-02-28 14:08:00,
2013-02-28 08:13:00,27.1,16.9,28.76,NNW,342,7.0,12.3,65,0.00,,,-99.99,FreeWX-Wi 1.01,2013-02-28 14:13:00,
2013-02-28 08:18:00,27.3,16.7,28.76,NNW,343,8.0,11.0,64,0.00,,,-99.99,FreeWX-Wi 1.01,2013-02-28 14:18:00,
2013-02-28 08:23:00,27.5,16.5,28.76,NNW,343,8.0,11.4,63,0.00,,,-99.99,FreeWX-Wi 1.01,2013-02-28 14:23:00,
2013-02-28 08:28:00,27.7,17.1,28.76,NNW,344,8.0,10.1,64,0.00,,,-99.99,FreeWX-Wi 1.01,2013-02-28 14:28:00,
2013-02-28 08:34:00,27.7,17.1,28.76,NNW,344,8.0,11.0,64,0.00,,,-99.99,FreeWX-Wi 1.01,2013-02-28 14:34:00,
2013-02-28 08:39:00,27.9,18.0,28.76,NNW,344,8.0,9.2,66,0.00,,,-99.99,FreeWX-Wi 1.01,2013-02-28 14:39:00,
2013-02-28 08:44:00,27.9,19.0,28.76,NNW,345,8.0,8.7,69,0.00,,,-99.99,FreeWX-Wi 1.01,2013-02-28 14:44:00,
2013-02-28 08:49:00,27.9,19.0,28.76,NNW,345,8.0,8.7,69,0.00,,,-99.99,FreeWX-Wi 1.01,2013-02-28 14:49:00,
2013-02-28 08:54:00,28.0,18.9,28.76,NNW,344,8.0,8.7,68,0.00,,,-99.99,FreeWX-Wi 1.01,2013-02-28 14:54:00,
2013-02-28 08:59:00,28.2,18.0,28.76,NNW,345,8.0,10.5,65,0.00,,,-99.99,FreeWX-Wi 1.01,2013-02-28 14:59:00,
2013-02-28 09:04:00,28.4,17.8,28.76,NNW,346,8.0,10.1,64,0.00,,,-99.99,FreeWX-Wi 1.01,2013-02-28 15:04:00,
2013-02-28 09:09:00,28.2,18.7,28.76,NNW,346,8.0,10.5,67,0.00,,,-99.99,FreeWX-Wi 1.01,2013-02-28 15:09:00,
2013-02-28 09:14:00,28.0,19.6,28.76,NNW,346,7.0,8.7,70,0.00,,,-99.99,FreeWX-Wi 1.01,2013-02-28 15:14:00,
2013-02-28 09:19:00,28.2,19.8,28.76,NNW,345,7.0,8.7,70,0.00,,,-99.99,FreeWX-Wi 1.01,2013-02-28 15:19:00,
2013-02-28 09:24:00,28.4,20.3,28.76,NNW,345,7.0,10.1,71,0.00,,,-99.99,FreeWX-Wi 1.01,2013-02-28 15:24:00,
2013-02-28 09:30:00,28.8,20.3,28.76,NNW,344,7.0,8.7,70,0.00,,,-99.99,FreeWX-Wi 1.01,2013-02-28 15:30:00,
2013-02-28 09:35:00,29.5,19.6,28.76,NNW,343,6.0,8.7,66,0.00,,,-99.99,FreeWX-Wi 1.01,2013-02-28 15:35:00,
2013-02-28 09:40:00,29.8,19.9,28.76,NNW,342,7.0,10.1,66,0.00,,,-99.99,FreeWX-Wi 1.01,2013-02-28 15:40:00,
2013-02-28 09:45:00,29.5,19.2,28.76,NNW,342,6.0,8.7,65,0.00,,,-99.99,FreeWX-Wi 1.01,2013-02-28 15:45:00,
2013-02-28 09:50:00,29.5,20.3,28.79,NNW,342,6.0,7.6,68,0.00,,,-99.99,FreeWX-Wi 1.01,2013-02-28 15:50:00,
2013-02-28 09:55:00,29.5,19.2,28.79,NNW,341,6.0,8.1,65,0.00,,,-99.99,FreeWX-Wi 1.01,2013-02-28 15:55:00,
2013-02-28 10:00:00,29.5,18.9,28.79,NNW,342,6.0,8.3,64,0.00,,,-99.99,FreeWX-Wi 1.01,2013-02-28 16:00:00,
2013-02-28 10:06:00,29.5,19.2,28.79,NNW,342,6.0,8.3,65,0.00,,,-99.99,FreeWX-Wi 1.01,2013-02-28 16:06:00,
2013-02-28 10:11:00,29.5,18.5,28.79,NNW,343,6.0,8.3,63,0.00,,,-99.99,FreeWX-Wi 1.01,2013-02-28 16:11:00,
2013-02-28 10:16:00,29.3,18.0,28.79,NNW,343,6.0,8.3,62,0.00,,,-99.99,FreeWX-Wi 1.01,2013-02-28 16:16:00,
2013-02-28 10:21:00,29.1,17.8,28.79,NNW,346,6.0,8.7,62,0.00,,,-99.99,FreeWX-Wi 1.01,2013-02-28 16:21:00,
2013-02-28 10:26:00,29.1,17.1,28.79,NNW,347,6.0,9.6,60,0.00,,,-99.99,FreeWX-Wi 1.01,2013-02-28 16:26:00,
2013-02-28 10:31:00,28.9,16.0,28.79,North,349,6.0,8.7,58,0.00,,,-99.99,FreeWX-Wi 1.01,2013-02-28 16:31:00,
2013-02-28 10:36:00,29.1,16.5,28.79,North,350,6.0,8.3,59,0.00,,,-99.99,FreeWX-Wi 1.01,2013-02-28 16:36:00,
2013-02-28 10:41:00,29.3,16.0,28.79,North,350,7.0,11.0,57,0.00,,,-99.99,FreeWX-Wi 1.01,2013-02-28 16:41:00,
2013-02-28 10:46:00,29.1,15.4,28.79,North,351,7.0,10.1,56,0.00,,,-99.99,FreeWX-Wi 1.01,2013-02-28 16:46:00,
2013-02-28 10:52:00,28.6,13.6,28.79,North,354,7.0,15.4,53,0.00,,,-99.99,FreeWX-Wi 1.01,2013-02-28 16:52:00,
2013-02-28 10:57:00,28.6,14.0,28.79,North,356,8.0,15.9,54,0.00,,,-99.99,FreeWX-Wi 1.01,2013-02-28 16:57:00,
2013-02-28 11:02:00,28.6,14.0,28.79,North,359,8.0,17.0,54,0.00,,,-99.99,FreeWX-Wi 1.01,2013-02-28 17:02:00,
2013-02-28 11:07:00,28.6,14.0,28.79,North,1,9.0,12.3,54,0.00,,,-99.99,FreeWX-Wi 1.01,2013-02-28 17:07:00,
2013-02-28 11:12:00,28.6,14.0,28.79,North,4,9.0,12.8,54,0.00,,,-99.99,FreeWX-Wi 1.01,2013-02-28 17:12:00,
2013-02-28 11:17:00,28.6,13.3,28.79,North,6,9.0,11.4,52,0.00,,,-99.99,FreeWX-Wi 1.01,2013-02-28 17:17:00,
2013-02-28 11:22:00,28.9,14.0,28.79,North,6,9.0,15.4,53,0.00,,,-99.99,FreeWX-Wi 1.01,2013-02-28 17:22:00,
2013-02-28 11:27:00,28.9,13.1,28.79,North,5,9.0,11.0,51,0.00,,,-99.99,FreeWX-Wi 1.01,2013-02-28 17:27:00,
2013-02-28 11:32:00,29.1,13.3,28.79,North,5,9.0,13.6,51,0.00,,,-99.99,FreeWX-Wi 1.01,2013-02-28 17:32:00,
2013-02-28 11:37:00,28.9,13.1,28.79,North,4,9.0,14.5,51,0.00,,,-99.99,FreeWX-Wi 1.01,2013-02-28 17:37:00,
2013-02-28 11:42:00,29.1,12.7,28.79,North,4,9.0,12.8,50,0.00,,,-99.99,FreeWX-Wi 1.01,2013-02-28 17:42:00,
2013-02-28 11:47:00,29.3,13.5,28.79,North,5,9.0,15.0,51,0.00,,,-99.99,FreeWX-Wi 1.01,2013-02-28 17:47:00,
2013-02-28 11:52:00,29.5,13.1,28.79,North,7,9.0,15.4,50,0.00,,,-99.99,FreeWX-Wi 1.01,2013-02-28 17:52:00,
2013-02-28 11:57:00,29.5,13.1,28.79,North,8,10.0,15.4,50,0.00,,,-99.99,FreeWX-Wi 1.01,2013-02-28 17:57:00,
2013-02-28 12:03:00,29.5,13.1,28.79,North,9,10.0,13.2,50,0.00,,,-99.99,FreeWX-Wi 1.01,2013-02-28 18:03:00,
2013-02-28 12:08:00,29.3,13.5,28.79,North,11,10.0,12.3,51,0.00,,,-99.99,FreeWX-Wi 1.01,2013-02-28 18:08:00,
2013-02-28 12:13:00,29.5,13.1,28.79,North,10,10.0,12.3,50,0.00,,,-99.99,FreeWX-Wi 1.01,2013-02-28 18:13:00,
2013-02-28 12:18:00,29.7,13.8,28.79,North,9,9.0,14.5,51,0.00,,,-99.99,FreeWX-Wi 1.01,2013-02-28 18:18:00,
2013-02-28 12:23:00,29.7,13.8,28.79,North,10,9.0,15.9,51,0.00,,,-99.99,FreeWX-Wi 1.01,2013-02-28 18:23:00,
2013-02-28 12:28:00,29.5,12.7,28.79,North,7,9.0,11.0,49,0.00,,,-99.99,FreeWX-Wi 1.01,2013-02-28 18:28:00,
2013-02-28 12:33:00,29.3,13.5,28.79,North,5,9.0,10.5,51,0.00,,,-99.99,FreeWX-Wi 1.01,2013-02-28 18:33:00,
2013-02-28 12:38:00,29.5,13.6,28.79,North,5,9.0,11.9,51,0.00,,,-99.99,FreeWX-Wi 1.01,2013-02-28 18:38:00,
2013-02-28 12:43:00,29.3,13.5,28.79,North,4,9.0,11.0,51,0.00,,,-99.99,FreeWX-Wi 1.01,2013-02-28 18:43:00,
2013-02-28 12:48:00,29.3,13.5,28.79,North,2,9.0,14.5,51,0.00,,,-99.99,FreeWX-Wi 1.01,2013-02-28 18:48:00,
2013-02-28 12:53:00,29.1,12.7,28.79,North,2,9.0,15.0,50,0.00,,,-99.99,FreeWX-Wi 1.01,2013-02-28 18:53:00,
2013-02-28 12:58:00,28.9,13.1,28.79,North,5,9.0,12.3,51,0.00,,,-99.99,FreeWX-Wi 1.01,2013-02-28 18:58:00,
2013-02-28 13:03:00,28.9,13.1,28.79,North,5,9.0,11.0,51,0.00,,,-99.99,FreeWX-Wi 1.01,2013-02-28 19:03:00,
2013-02-28 13:09:00,28.9,13.1,28.79,North,7,9.0,12.3,51,0.00,,,-99.99,FreeWX-Wi 1.01,2013-02-28 19:09:00,
2013-02-28 13:14:00,28.9,13.5,28.79,North,9,9.0,12.8,52,0.00,,,-99.99,FreeWX-Wi 1.01,2013-02-28 19:14:00,
2013-02-28 13:19:00,29.1,13.3,28.79,North,10,9.0,13.2,51,0.00,,,-99.99,FreeWX-Wi 1.01,2013-02-28 19:19:00,
2013-02-28 13:24:00,28.9,13.1,28.79,North,10,9.0,12.8,51,0.00,,,-99.99,FreeWX-Wi 1.01,2013-02-28 19:24:00,
2013-02-28 13:29:00,29.1,13.3,28.79,North,11,9.0,13.2,51,0.00,,,-99.99,FreeWX-Wi 1.01,2013-02-28 19:29:00,
2013-02-28 13:34:00,28.8,13.5,28.79,North,11,9.0,12.8,52,0.00,,,-99.99,FreeWX-Wi 1.01,2013-02-28 19:34:00,
2013-02-28 13:39:00,28.8,13.5,28.79,North,11,9.0,13.2,52,0.00,,,-99.99,FreeWX-Wi 1.01,2013-02-28 19:39:00,
2013-02-28 13:44:00,28.6,13.3,28.79,North,9,9.0,11.0,52,0.00,,,-99.99,FreeWX-Wi 1.01,2013-02-28 19:44:00,
2013-02-28 13:49:00,28.6,13.6,28.79,North,4,9.0,10.5,53,0.00,,,-99.99,FreeWX-Wi 1.01,2013-02-28 19:49:00,
2013-02-28 13:54:00,28.6,14.0,28.79,North,2,8.0,11.0,54,0.00,,,-99.99,FreeWX-Wi 1.01,2013-02-28 19:54:00,
2013-02-28 13:59:00,28.6,13.6,28.79,North,2,8.0,10.5,53,0.00,,,-99.99,FreeWX-Wi 1.01,2013-02-28 19:59:00,
2013-02-28 14:04:00,28.8,13.5,28.79,North,0,8.0,8.7,52,0.00,,,-99.99,FreeWX-Wi 1.01,2013-02-28 20:04:00,
2013-02-28 14:09:00,28.8,13.5,28.79,North,357,7.0,10.1,52,0.00,,,-99.99,FreeWX-Wi 1.01,2013-02-28 20:09:00,
2013-02-28 14:14:00,28.9,13.5,28.79,North,356,7.0,10.5,52,0.00,,,-99.99,FreeWX-Wi 1.01,2013-02-28 20:14:00,
2013-02-28 14:20:00,29.1,14.2,28.79,North,355,7.0,8.3,53,0.00,,,-99.99,FreeWX-Wi 1.01,2013-02-28 20:20:00,
2013-02-28 14:25:00,29.1,14.2,28.79,North,351,7.0,8.7,53,0.00,,,-99.99,FreeWX-Wi 1.01,2013-02-28 20:25:00,
2013-02-28 14:30:00,28.9,14.0,28.79,North,349,7.0,10.5,53,0.00,,,-99.99,FreeWX-Wi 1.01,2013-02-28 20:30:00,
2013-02-28 14:35:00,28.8,13.8,28.79,NNW,348,7.0,10.5,53,0.00,,,-99.99,FreeWX-Wi 1.01,2013-02-28 20:35:00,
2013-02-28 14:40:00,28.8,12.9,28.79,NNW,347,7.0,10.1,51,0.00,,,-99.99,FreeWX-Wi 1.01,2013-02-28 20:40:00,
2013-02-28 14:45:00,28.6,12.7,28.79,North,349,8.0,12.3,51,0.00,,,-99.99,FreeWX-Wi 1.01,2013-02-28 20:45:00,
2013-02-28 14:50:00,28.6,12.7,28.79,North,351,8.0,10.5,51,0.00,,,-99.99,FreeWX-Wi 1.01,2013-02-28 20:50:00,
2013-02-28 14:55:00,28.6,13.6,28.79,North,352,8.0,9.2,53,0.00,,,-99.99,FreeWX-Wi 1.01,2013-02-28 20:55:00,
2013-02-28 15:00:00,28.4,13.5,28.79,North,355,7.0,8.7,53,0.00,,,-99.99,FreeWX-Wi 1.01,2013-02-28 21:00:00,
2013-02-28 15:05:00,28.4,13.8,28.79,North,356,7.0,9.2,54,0.00,,,-99.99,FreeWX-Wi 1.01,2013-02-28 21:05:00,
2013-02-28 15:10:00,28.4,14.7,28.79,North,355,7.0,8.7,56,0.00,,,-99.99,FreeWX-Wi 1.01,2013-02-28 21:10:00,
2013-02-28 15:16:00,28.6,14.0,28.79,North,353,7.0,8.7,54,0.00,,,-99.99,FreeWX-Wi 1.01,2013-02-28 21:16:00,
2013-02-28 15:21:00,28.4,14.4,28.79,North,353,7.0,8.3,55,0.00,,,-99.99,FreeWX-Wi 1.01,2013-02-28 21:21:00,
2013-02-28 15:26:00,28.6,14.5,28.79,North,351,7.0,8.7,55,0.00,,,-99.99,FreeWX-Wi 1.01,2013-02-28 21:26:00,
2013-02-28 15:31:00,28.4,14.4,28.79,North,349,7.0,9.6,55,0.00,,,-99.99,FreeWX-Wi 1.01,2013-02-28 21:31:00,
2013-02-28 15:36:00,28.4,14.7,28.79,NNW,348,7.0,8.1,56,0.00,,,-99.99,FreeWX-Wi 1.01,2013-02-28 21:36:00,
2013-02-28 15:41:00,28.4,15.1,28.79,NNW,348,6.0,8.1,57,0.00,,,-99.99,FreeWX-Wi 1.01,2013-02-28 21:41:00,
2013-02-28 15:46:00,28.2,14.9,28.79,NNW,348,6.0,8.1,57,0.00,,,-99.99,FreeWX-Wi 1.01,2013-02-28 21:46:00,
2013-02-28 15:51:00,28.2,14.5,28.79,NNW,346,6.0,8.3,56,0.00,,,-99.99,FreeWX-Wi 1.01,2013-02-28 21:51:00,
2013-02-28 15:56:00,28.2,14.5,28.79,NNW,344,6.0,8.3,56,0.00,,,-99.99,FreeWX-Wi 1.01,2013-02-28 21:56:00,
2013-02-28 16:01:00,28.2,14.9,28.79,NNW,344,6.0,8.1,57,0.00,,,-99.99,FreeWX-Wi 1.01,2013-02-28 22:01:00,
2013-02-28 16:06:00,28.0,14.7,28.79,NNW,344,6.0,7.6,57,0.00,,,-99.99,FreeWX-Wi 1.01,2013-02-28 22:06:00,
2013-02-28 16:11:00,28.0,14.7,28.79,NNW,344,6.0,8.3,57,0.00,,,-99.99,FreeWX-Wi 1.01,2013-02-28 22:11:00,
2013-02-28 16:16:00,27.9,14.5,28.79,NNW,343,6.0,8.1,57,0.00,,,-99.99,FreeWX-Wi 1.01,2013-02-28 22:16:00,
2013-02-28 16:21:00,27.9,14.2,28.79,NNW,343,6.0,8.1,56,0.00,,,-99.99,FreeWX-Wi 1.01,2013-02-28 22:21:00,
2013-02-28 16:26:00,27.7,14.9,28.79,NNW,344,6.0,7.6,58,0.00,,,-99.99,FreeWX-Wi 1.01,2013-02-28 22:26:00,
2013-02-28 16:32:00,27.7,14.5,28.79,NNW,346,6.0,7.2,57,0.00,,,-99.99,FreeWX-Wi 1.01,2013-02-28 22:32:00,
2013-02-28 16:37:00,27.7,14.5,28.79,NNW,346,6.0,8.3,57,0.00,,,-99.99,FreeWX-Wi 1.01,2013-02-28 22:37:00,
2013-02-28 16:42:00,27.7,14.5,28.79,NNW,347,6.0,8.7,57,0.00,,,-99.99,FreeWX-Wi 1.01,2013-02-28 22:42:00,
2013-02-28 16:47:00,27.5,14.7,28.79,NNW,347,6.0,8.7,58,0.00,,,-99.99,FreeWX-Wi 1.01,2013-02-28 22:47:00,
2013-02-28 16:52:00,27.3,14.2,28.79,NNW,347,6.0,8.3,57,0.00,,,-99.99,FreeWX-Wi 1.01,2013-02-28 22:52:00,
2013-02-28 16:57:00,27.3,14.9,28.79,NNW,348,6.0,7.6,59,0.00,,,-99.99,FreeWX-Wi 1.01,2013-02-28 22:57:00,
2013-02-28 17:02:00,27.1,14.4,28.79,NNW,348,6.0,6.3,58,0.00,,,-99.99,FreeWX-Wi 1.01,2013-02-28 23:02:00,
2013-02-28 17:07:00,27.3,15.3,28.79,NNW,348,6.0,10.1,60,0.00,,,-99.99,FreeWX-Wi 1.01,2013-02-28 23:07:00,
2013-02-28 17:12:00,27.1,15.1,28.79,NNW,348,6.0,7.6,60,0.00,,,-99.99,FreeWX-Wi 1.01,2013-02-28 23:12:00,
2013-02-28 17:17:00,27.1,14.7,28.79,NNW,348,6.0,7.2,59,0.00,,,-99.99,FreeWX-Wi 1.01,2013-02-28 23:17:00,
2013-02-28 17:23:00,27.1,15.1,28.79,NNW,347,5.0,7.6,60,0.00,,,-99.99,FreeWX-Wi 1.01,2013-02-28 23:23:00,
2013-02-28 17:28:00,27.0,16.5,28.79,NNW,345,5.0,6.7,64,0.00,,,-99.99,FreeWX-Wi 1.01,2013-02-28 23:28:00,
2013-02-28 17:33:00,26.6,17.4,28.82,NNW,343,5.0,5.8,68,0.00,,,-99.99,FreeWX-Wi 1.01,2013-02-28 23:33:00,
2013-02-28 17:38:00,26.4,18.0,28.82,NNW,342,5.0,6.3,70,0.00,,,-99.99,FreeWX-Wi 1.01,2013-02-28 23:38:00,
2013-02-28 17:43:00,26.2,18.1,28.82,NNW,341,5.0,6.3,71,0.00,,,-99.99,FreeWX-Wi 1.01,2013-02-28 23:43:00,
2013-02-28 17:48:00,26.2,18.1,28.82,NNW,340,4.0,6.3,71,0.00,,,-99.99,FreeWX-Wi 1.01,2013-02-28 23:48:00,
2013-02-28 17:53:00,26.1,18.3,28.82,NNW,339,4.0,6.3,72,0.00,,,-99.99,FreeWX-Wi 1.01,2013-02-28 23:53:00,
2013-02-28 17:58:00,26.1,18.3,28.82,NNW,338,4.0,6.7,72,0.00,,,-99.99,FreeWX-Wi 1.01,2013-02-28 23:58:00,
2013-02-28 18:03:00,26.1,18.7,28.82,NNW,338,4.0,6.3,73,0.00,,,-99.99,FreeWX-Wi 1.01,2013-03-01 00:03:00,
2013-02-28 18:08:00,26.1,18.9,28.82,NNW,338,4.0,6.3,74,0.00,,,-99.99,FreeWX-Wi 1.01,2013-03-01 00:08:00,
2013-02-28 18:13:00,25.9,19.0,28.82,NNW,337,4.0,6.3,75,0.00,,,-99.99,FreeWX-Wi 1.01,2013-03-01 00:13:00,
2013-02-28 18:18:00,25.9,19.4,28.82,NNW,337,4.0,6.3,76,0.00,,,-99.99,FreeWX-Wi 1.01,2013-03-01 00:18:00,
2013-02-28 18:23:00,25.9,19.4,28.82,NNW,338,5.0,6.3,76,0.00,,,-99.99,FreeWX-Wi 1.01,2013-03-01 00:23:00,
2013-02-28 18:28:00,25.7,19.6,28.82,NNW,340,5.0,6.3,77,0.00,,,-99.99,FreeWX-Wi 1.01,2013-03-01 00:28:00,
2013-02-28 18:34:00,25.7,19.6,28.82,NNW,340,4.0,5.8,77,0.00,,,-99.99,FreeWX-Wi 1.01,2013-03-01 00:34:00,
2013-02-28 18:39:00,25.7,19.6,28.82,NNW,340,4.0,6.3,77,0.00,,,-99.99,FreeWX-Wi 1.01,2013-03-01 00:39:00,
2013-02-28 18:44:00,25.7,19.2,28.82,NNW,341,4.0,6.3,76,0.00,,,-99.99,FreeWX-Wi 1.01,2013-03-01 00:44:00,
2013-02-28 18:49:00,25.7,19.2,28.82,NNW,340,4.0,6.3,76,0.00,,,-99.99,FreeWX-Wi 1.01,2013-03-01 00:49:00,
2013-02-28 18:54:00,25.7,18.9,28.82,NNW,341,4.0,6.3,75,0.00,,,-99.99,FreeWX-Wi 1.01,2013-03-01 00:54:00,
2013-02-28 18:59:00,25.7,18.3,28.82,NNW,341,4.0,6.3,73,0.00,,,-99.99,FreeWX-Wi 1.01,2013-03-01 00:59:00,
2013-02-28 19:04:00,25.7,17.2,28.82,NNW,344,5.0,9.6,70,0.00,,,-99.99,FreeWX-Wi 1.01,2013-03-01 01:04:00,
2013-02-28 19:10:00,25.9,17.4,28.82,NNW,345,5.0,6.7,70,0.00,,,-99.99,FreeWX-Wi 1.01,2013-03-01 01:10:00,
2013-02-28 19:15:00,25.7,17.2,28.82,NNW,346,5.0,7.6,70,0.00,,,-99.99,FreeWX-Wi 1.01,2013-03-01 01:15:00,
2013-02-28 19:20:00,25.9,17.4,28.82,NNW,346,5.0,6.7,70,0.00,,,-99.99,FreeWX-Wi 1.01,2013-03-01 01:20:00,
2013-02-28 19:25:00,25.7,17.6,28.82,NNW,346,5.0,6.3,71,0.00,,,-99.99,FreeWX-Wi 1.01,2013-03-01 01:25:00,
2013-02-28 19:30:00,25.7,18.0,28.82,NNW,344,5.0,6.3,72,0.00,,,-99.99,FreeWX-Wi 1.01,2013-03-01 01:30:00,
2013-02-28 19:35:00,25.7,18.3,28.82,NNW,343,5.0,8.1,73,0.00,,,-99.99,FreeWX-Wi 1.01,2013-03-01 01:35:00,
2013-02-28 19:40:00,25.7,18.0,28.82,NNW,344,5.0,6.3,72,0.00,,,-99.99,FreeWX-Wi 1.01,2013-03-01 01:40:00,
2013-02-28 19:45:00,25.7,18.0,28.82,NNW,345,5.0,7.6,72,0.00,,,-99.99,FreeWX-Wi 1.01,2013-03-01 01:45:00,
2013-02-28 19:50:00,25.7,18.0,28.82,NNW,345,5.0,8.1,72,0.00,,,-99.99,FreeWX-Wi 1.01,2013-03-01 01:50:00,
2013-02-28 19:55:00,25.7,18.0,28.82,NNW,346,6.0,6.3,72,0.00,,,-99.99,FreeWX-Wi 1.01,2013-03-01 01:55:00,
2013-02-28 20:00:00,25.7,18.0,28.82,NNW,347,6.0,8.1,72,0.00,,,-99.99,FreeWX-Wi 1.01,2013-03-01 02:00:00,
2013-02-28 20:05:00,25.5,17.8,28.82,NNW,346,6.0,8.1,72,0.00,,,-99.99,FreeWX-Wi 1.01,2013-03-01 02:05:00,
2013-02-28 20:10:00,25.5,17.8,28.82,NNW,345,5.0,5.8,72,0.00,,,-99.99,FreeWX-Wi 1.01,2013-03-01 02:10:00,
2013-02-28 20:15:00,25.5,17.8,28.82,NNW,344,5.0,6.3,72,0.00,,,-99.99,FreeWX-Wi 1.01,2013-03-01 02:15:00,
2013-02-28 20:21:00,25.5,17.8,28.82,NNW,344,5.0,6.7,72,0.00,,,-99.99,FreeWX-Wi 1.01,2013-03-01 02:21:00,
2013-02-28 20:26:00,25.5,17.8,28.82,NNW,344,5.0,6.3,72,0.00,,,-99.99,FreeWX-Wi 1.01,2013-03-01 02:26:00,
2013-02-28 20:31:00,25.3,17.6,28.82,NNW,345,5.0,6.3,72,0.00,,,-99.99,FreeWX-Wi 1.01,2013-03-01 02:31:00,
2013-02-28 20:36:00,25.3,17.2,28.82,NNW,345,5.0,6.3,71,0.00,,,-99.99,FreeWX-Wi 1.01,2013-03-01 02:36:00,
2013-02-28 20:41:00,25.3,17.6,28.82,NNW,345,5.0,6.3,72,0.00,,,-99.99,FreeWX-Wi 1.01,2013-03-01 02:41:00,
2013-02-28 20:46:00,25.3,17.2,28.85,NNW,345,5.0,6.3,71,0.00,,,-99.99,FreeWX-Wi 1.01,2013-03-01 02:46:00,
2013-02-28 20:51:00,25.3,17.2,28.85,NNW,345,5.0,6.3,71,0.00,,,-99.99,FreeWX-Wi 1.01,2013-03-01 02:51:00,
2013-02-28 20:56:00,25.3,17.2,28.85,NNW,345,5.0,8.3,71,0.00,,,-99.99,FreeWX-Wi 1.01,2013-03-01 02:56:00,
2013-02-28 21:01:00,25.3,16.9,28.85,NNW,344,5.0,6.3,70,0.00,,,-99.99,FreeWX-Wi 1.01,2013-03-01 03:01:00,
2013-02-28 21:06:00,25.2,16.7,28.85,NNW,344,5.0,7.6,70,0.00,,,-99.99,FreeWX-Wi 1.01,2013-03-01 03:06:00,
2013-02-28 21:11:00,25.2,16.5,28.85,NNW,345,5.0,8.3,69,0.00,,,-99.99,FreeWX-Wi 1.01,2013-03-01 03:11:00,
2013-02-28 21:17:00,25.2,15.8,28.85,NNW,345,5.0,6.7,67,0.00,,,-99.99,FreeWX-Wi 1.01,2013-03-01 03:17:00,
2013-02-28 21:22:00,25.2,15.4,28.85,NNW,344,5.0,8.1,66,0.00,,,-99.99,FreeWX-Wi 1.01,2013-03-01 03:22:00,
2013-02-28 21:27:00,25.2,15.4,28.85,NNW,344,5.0,8.1,66,0.00,,,-99.99,FreeWX-Wi 1.01,2013-03-01 03:27:00,
2013-02-28 21:32:00,25.2,15.1,28.82,NNW,345,6.0,7.6,65,0.00,,,-99.99,FreeWX-Wi 1.01,2013-03-01 03:32:00,
2013-02-28 21:37:00,25.2,14.7,28.82,NNW,345,6.0,7.6,64,0.00,,,-99.99,FreeWX-Wi 1.01,2013-03-01 03:37:00,
2013-02-28 21:42:00,25.2,14.4,28.82,NNW,346,6.0,8.3,63,0.00,,,-99.99,FreeWX-Wi 1.01,2013-03-01 03:42:00,
2013-02-28 21:47:00,25.2,14.4,28.85,NNW,346,6.0,8.1,63,0.00,,,-99.99,FreeWX-Wi 1.01,2013-03-01 03:47:00,
2013-02-28 21:52:00,25.2,14.4,28.85,NNW,347,6.0,6.3,63,0.00,,,-99.99,FreeWX-Wi 1.01,2013-03-01 03:52:00,
2013-02-28 21:57:00,25.0,13.8,28.85,NNW,347,5.0,8.1,62,0.00,,,-99.99,FreeWX-Wi 1.01,2013-03-01 03:57:00,
2013-02-28 22:02:00,25.0,13.8,28.85,NNW,347,5.0,6.3,62,0.00,,,-99.99,FreeWX-Wi 1.01,2013-03-01 04:02:00,
2013-02-28 22:07:00,25.0,13.8,28.85,NNW,346,5.0,5.8,62,0.00,,,-99.99,FreeWX-Wi 1.01,2013-03-01 04:07:00,
2013-02-28 22:13:00,25.0,13.5,28.85,NNW,346,5.0,6.3,61,0.00,,,-99.99,FreeWX-Wi 1.01,2013-03-01 04:13:00,
2013-02-28 22:18:00,25.0,13.5,28.85,NNW,346,5.0,5.8,61,0.00,,,-99.99,FreeWX-Wi 1.01,2013-03-01 04:18:00,
2013-02-28 22:23:00,24.8,13.6,28.85,NNW,346,5.0,6.3,62,0.00,,,-99.99,FreeWX-Wi 1.01,2013-03-01 04:23:00,
2013-02-28 22:28:00,24.8,13.6,28.85,NNW,346,5.0,6.3,62,0.00,,,-99.99,FreeWX-Wi 1.01,2013-03-01 04:28:00,
2013-02-28 22:33:00,24.8,13.6,28.85,NNW,346,5.0,7.6,62,0.00,,,-99.99,FreeWX-Wi 1.01,2013-03-01 04:33:00,
2013-02-28 22:38:00,24.8,13.3,28.85,NNW,347,5.0,6.3,61,0.00,,,-99.99,FreeWX-Wi 1.01,2013-03-01 04:38:00,
2013-02-28 22:43:00,24.8,13.6,28.85,NNW,347,5.0,6.3,62,0.00,,,-99.99,FreeWX-Wi 1.01,2013-03-01 04:43:00,
2013-02-28 22:48:00,24.8,12.9,28.85,NNW,348,5.0,6.3,60,0.00,,,-99.99,FreeWX-Wi 1.01,2013-03-01 04:48:00,
2013-02-28 22:53:00,24.8,12.9,28.85,North,350,5.0,5.8,60,0.00,,,-99.99,FreeWX-Wi 1.01,2013-03-01 04:53:00,
2013-02-28 22:58:00,24.8,12.6,28.85,North,352,5.0,7.6,59,0.00,,,-99.99,FreeWX-Wi 1.01,2013-03-01 04:58:00,
2013-02-28 23:04:00,24.8,12.6,28.82,North,353,5.0,5.8,59,0.00,,,-99.99,FreeWX-Wi 1.01,2013-03-01 05:04:00,
2013-02-28 23:09:00,24.6,12.7,28.82,North,355,5.0,6.3,60,0.00,,,-99.99,FreeWX-Wi 1.01,2013-03-01 05:09:00,
2013-02-28 23:14:00,24.6,12.4,28.82,North,356,5.0,6.3,59,0.00,,,-99.99,FreeWX-Wi 1.01,2013-03-01 05:14:00,
2013-02-28 23:19:00,24.6,12.0,28.82,North,357,5.0,8.7,58,0.00,,,-99.99,FreeWX-Wi 1.01,2013-03-01 05:19:00,
2013-02-28 23:24:00,24.4,12.2,28.82,North,357,5.0,7.2,59,0.00,,,-99.99,FreeWX-Wi 1.01,2013-03-01 05:24:00,
2013-02-28 23:29:00,24.4,12.2,28.82,North,357,5.0,8.1,59,0.00,,,-99.99,FreeWX-Wi 1.01,2013-03-01 05:29:00,
2013-02-28 23:34:00,24.4,12.6,28.82,North,358,5.0,6.3,60,0.00,,,-99.99,FreeWX-Wi 1.01,2013-03-01 05:34:00,
2013-02-28 23:39:00,24.4,12.6,28.82,North,0,5.0,6.3,60,0.00,,,-99.99,FreeWX-Wi 1.01,2013-03-01 05:39:00,
2013-02-28 23:44:00,24.3,12.0,28.82,North,2,5.0,6.3,59,0.00,,,-99.99,FreeWX-Wi 1.01,2013-03-01 05:44:00,
2013-02-28 23:49:00,24.3,12.0,28.82,North,2,5.0,8.3,59,0.00,,,-99.99,FreeWX-Wi 1.01,2013-03-01 05:49:00,
2013-02-28 23:54:00,24.1,11.8,28.82,North,3,5.0,6.3,59,0.00,,,-99.99,FreeWX-Wi 1.01,2013-03-01 05:54:00,